Time;durP1;ratioP1;P1;durP2;ratioP2;P2;SDS_P1;SDS_P2;PMS_P1;PMS_P2;Temp;Humidity;BMP_temperature;BMP_pressure;BME280_temperature;BME280_humidity;BME280_pressure;Samples;Min_cycle;Max_cycle;Signal;HPM_P1;HPM_P2
2021/10/15 00:06:39;;;;;;;8.133334;5;;;;;;;8.431723;69.14808;99161;;;;
2021/10/15 00:16:37;;;;;;;6.6;3.9;;;;;;;8.502219;69.40334;99156;;;;
2021/10/15 00:26:36;;;;;;;7.05;4.7;;;;;;;8.562143;69.15847;99165;;;;
2021/10/15 00:36:35;;;;;;;6.933333;4.833334;;;;;;;8.611877;69.14281;99148;;;;
2021/10/15 00:46:34;;;;;;;7.5;4.5;;;;;;;8.612029;69.41623;99134;;;;
2021/10/15 00:56:32;;;;;;;6.8;4.4;;;;;;;8.491685;70.41513;99124;;;;
2021/10/15 01:06:31;;;;;;;5.8;4.05;;;;;;;8.282105;70.88979;99118;;;;
2021/10/15 01:16:30;;;;;;;6.1;3.5;;;;;;;8.081952;71.36423;99114;;;;
2021/10/15 01:26:29;;;;;;;6.45;3.8;;;;;;;7.891723;71.77311;99107;;;;
2021/10/15 01:36:28;;;;;;;5.9;3.6;;;;;;;7.821799;72.63024;99099;;;;
2021/10/15 01:46:30;;;;;;;6.05;3.45;;;;;;;7.761838;72.4137;99093;;;;
2021/10/15 01:56:25;;;;;;;8.466667;3.4;;;;;;;7.841684;72.76894;99085;;;;
2021/10/15 02:06:24;;;;;;;8.166667;3.133333;;;;;;;7.892181;72.97561;99083;;;;
2021/10/15 02:16:22;;;;;;;7.633335;2.9;;;;;;;7.981991;73.26056;99073;;;;
2021/10/15 02:26:21;;;;;;;4.7;2.2;;;;;;;8.112029;73.2407;99060;;;;
2021/10/15 02:36:19;;;;;;;6.2;2.8;;;;;;;8.292256;72.47277;99063;;;;
2021/10/15 02:46:18;;;;;;;5.35;2.8;;;;;;;8.37176;72.14348;99065;;;;
2021/10/15 02:56:17;;;;;;;5.033333;2.633333;;;;;;;8.392067;72.28724;99071;;;;
2021/10/15 03:06:16;;;;;;;4.9;2.466666;;;;;;;8.431838;72.17278;99067;;;;
2021/10/15 03:16:15;;;;;;;4;2.6;;;;;;;8.401799;72.65353;99071;;;;
2021/10/15 03:26:13;;;;;;;6.95;3.45;;;;;;;8.382067;72.95626;99069;;;;
2021/10/15 03:36:16;;;;;;;6.333334;3.466666;;;;;;;8.411839;73.56174;99060;;;;
2021/10/15 03:46:11;;;;;;;6.6;3.433333;;;;;;;8.472257;73.43025;99060;;;;
2021/10/15 03:56:09;;;;;;;4.3;2.6;;;;;;;8.512143;73.70435;99062;;;;
2021/10/15 04:06:08;;;;;;;5;2.1;;;;;;;8.571838;73.15093;99062;;;;
2021/10/15 04:16:07;;;;;;;4.85;2.15;;;;;;;8.581684;72.9973;99060;;;;
2021/10/15 04:26:07;;;;;;;4.5;2.3;;;;;;;8.401838;73.61224;99050;;;;
2021/10/15 04:36:04;;;;;;;4.85;2.5;;;;;;;8.211684;74.17484;99046;;;;
2021/10/15 04:46:03;;;;;;;2.6;1.4;;;;;;;8.191799;74.11223;99038;;;;
2021/10/15 04:56:02;;;;;;;3.5;1.6;;;;;;;8.291876;73.96092;99040;;;;
2021/10/15 05:06:01;;;;;;;3.5;1.9;;;;;;;8.421722;73.42375;99032;;;;
2021/10/15 05:15:59;;;;;;;3.933333;2.366667;;;;;;;8.552029;73.2216;99040;;;;
2021/10/15 05:25:58;;;;;;;4.633333;2.5;;;;;;;8.692029;73.04845;99034;;;;
2021/10/15 05:35:57;;;;;;;4.466667;2.3;;;;;;;8.801838;72.27188;99026;;;;
2021/10/15 05:45:56;;;;;;;4.033333;1.933333;;;;;;;8.972181;71.78213;99026;;;;
2021/10/15 05:56:07;;;;;;;4.3;2;;;;;;;9.121838;71.97082;99022;;;;
2021/10/15 06:25:51;;;;;;;4.8;2.4;;;;;;;9.852105;71.7457;99016;;;;
2021/10/15 06:35:50;;;;;;;3.2;1.7;;;;;;;10.02184;70.38161;99000;;;;
2021/10/15 06:45:49;;;;;;;2.9;1.8;;;;;;;10.23207;69.67611;99004;;;;
2021/10/15 06:55:48;;;;;;;3.6;1.7;;;;;;;10.48218;69.67439;99000;;;;
2021/10/15 07:05:46;;;;;;;5.133333;2.8;;;;;;;10.78176;69.62442;99002;;;;
2021/10/15 07:15:46;;;;;;;8.1;3.7;;;;;;;11.18222;68.29965;98996;;;;
2021/10/15 07:25:45;;;;;;;3.5;2.2;;;;;;;11.62222;68.46101;98990;;;;
2021/10/15 07:35:50;;;;;;;6;1.9;;;;;;;11.90211;66.41399;98979;;;;
2021/10/15 07:55:42;;;;;;;5.6;2.1;;;;;;;12.7218;63.97583;98983;;;;
2021/10/15 08:05:46;;;;;;;5.3;2.4;;;;;;;12.86222;63.41249;98979;;;;
2021/10/15 08:15:40;;;;;;;5.15;2.05;;;;;;;12.72218;63.68157;98975;;;;
2021/10/15 08:25:39;;;;;;;5.466667;1.966667;;;;;;;12.75199;63.11645;98965;;;;
2021/10/15 08:35:38;;;;;;;3.7;1.6;;;;;;;12.66;63.019;98963;;;;
2021/10/15 08:45:40;;;;;;;4.05;1.85;;;;;;;13.20222;62.68637;98953;;;;
2021/10/15 09:05:36;;;;;;;2.7;1.1;;;;;;;13.7318;61.77514;98946;;;;
2021/10/15 09:15:36;;;;;;;2.3;1.3;;;;;;;14.06184;59.8339;98942;;;;
2021/10/15 09:35:34;;;;;;;3.7;1.7;;;;;;;14.58191;57.33864;98936;;;;
2021/10/15 09:45:34;;;;;;;4.05;1.65;;;;;;;14.8821;57.78629;98930;;;;
2021/10/15 09:55:38;;;;;;;2.2;1.2;;;;;;;15.32199;57.11533;98916;;;;
2021/10/15 10:05:32;;;;;;;5.1;1.5;;;;;;;15.31203;56.56026;98906;;;;
2021/10/15 10:15:32;;;;;;;2.5;1.4;;;;;;;15.41184;55.70426;98899;;;;
2021/10/15 10:25:32;;;;;;;4.4;1.8;;;;;;;15.8318;54.98033;98891;;;;
2021/10/15 10:35:31;;;;;;;4.9;2.2;;;;;;;15.99226;54.39651;98879;;;;
2021/10/15 10:45:31;;;;;;;3;1.3;;;;;;;16.15191;53.57578;98873;;;;
2021/10/15 10:55:30;;;;;;;3.3;1.5;;;;;;;16.3;51.53901;98863;;;;
2021/10/15 11:05:39;;;;;;;2;1.1;;;;;;;16.3521;51.77873;98852;;;;
2021/10/15 11:15:30;;;;;;;4.5;2;;;;;;;16.45;52.914;98848;;;;
2021/10/15 11:25:30;;;;;;;3.75;1.8;;;;;;;16.60172;51.89602;98830;;;;
2021/10/15 11:35:30;;;;;;;4.9;1.9;;;;;;;16.92168;52.25156;98822;;;;
2021/10/15 11:45:29;;;;;;;3.4;1.4;;;;;;;17.2218;50.81409;98808;;;;
2021/10/15 11:55:31;;;;;;;3.4;1.4;;;;;;;17.19214;52.08285;98810;;;;
2021/10/15 12:05:37;;;;;;;3.45;1.4;;;;;;;16.92207;51.64875;98801;;;;
2021/10/15 12:15:29;;;;;;;3.2;1.5;;;;;;;17.12199;51.76913;98795;;;;
2021/10/15 12:25:29;;;;;;;3.1;1.5;;;;;;;16.8821;51.89919;98789;;;;
2021/10/15 12:55:28;;;;;;;4.7;2.5;;;;;;;16.24222;52.96195;98789;;;;
2021/10/15 13:05:27;;;;;;;3.6;1.7;;;;;;;16.06211;53.19676;98775;;;;
2021/10/15 13:15:27;;;;;;;5.1;1.8;;;;;;;15.33218;54.3122;98765;;;;
2021/10/15 13:25:27;;;;;;;3.2;1.5;;;;;;;15.53168;54.21717;98749;;;;
2021/10/15 13:35:28;;;;;;;2.3;1.1;;;;;;;15.28188;54.10799;98736;;;;
2021/10/15 13:45:32;;;;;;;4.5;2.1;;;;;;;15.00188;54.16178;98726;;;;
2021/10/15 13:55:26;;;;;;;4.2;1.4;;;;;;;15.0318;55.2732;98718;;;;
2021/10/15 14:05:25;;;;;;;5.2;2.4;;;;;;;14.81218;56.03239;98726;;;;
2021/10/15 14:15:28;;;;;;;4.3;2.1;;;;;;;14.88195;55.39307;98747;;;;
2021/10/15 14:35:24;;;;;;;4.4;1.8;;;;;;;14.18176;57.0872;98751;;;;
2021/10/15 14:45:23;;;;;;;4.3;1.95;;;;;;;13.97176;57.80431;98751;;;;
2021/10/15 14:55:27;;;;;;;3.8;1.9;;;;;;;13.27211;59.20596;98741;;;;
2021/10/15 15:05:22;;;;;;;4;2.2;;;;;;;13.09199;59.43564;98737;;;;
2021/10/15 15:15:21;;;;;;;4.6;2.8;;;;;;;12.98214;59.85385;98749;;;;
2021/10/15 15:25:20;;;;;;;5;2.5;;;;;;;12.77176;60.11034;98741;;;;
2021/10/15 15:35:20;;;;;;;10.1;5.7;;;;;;;12.65214;60.75311;98751;;;;
2021/10/15 15:45:21;;;;;;;6.8;3.6;;;;;;;12.4418;62.0952;98767;;;;
2021/10/15 15:55:19;;;;;;;8.25;5.75;;;;;;;12.35214;61.50203;98769;;;;
2021/10/15 16:05:17;;;;;;;12.5;8.1;;;;;;;12.29168;61.72598;98777;;;;
2021/10/15 16:15:17;;;;;;;9.4;6.5;;;;;;;12.18211;61.81919;98783;;;;
2021/10/15 16:25:15;;;;;;;8.6;6.3;;;;;;;12.07218;62.41767;98793;;;;
2021/10/15 16:35:15;;;;;;;7.15;4.9;;;;;;;11.95226;62.86716;98795;;;;
2021/10/15 16:45:16;;;;;;;9.1;5.1;;;;;;;11.67184;63.88404;98785;;;;
2021/10/15 16:55:18;;;;;;;7.6;5.1;;;;;;;11.21195;64.13114;98775;;;;
2021/10/15 17:05:12;;;;;;;10.5;5.4;;;;;;;10.76;65.901;98779;;;;
2021/10/15 17:15:11;;;;;;;8.15;4.65;;;;;;;10.71191;66.00107;98769;;;;
2021/10/15 17:25:10;;;;;;;6.5;4.8;;;;;;;10.62188;66.15988;98773;;;;
2021/10/15 17:35:09;;;;;;;9;4.7;;;;;;;10.4818;66.63186;98769;;;;
2021/10/15 17:45:08;;;;;;;7.45;4.45;;;;;;;10.31195;67.07353;98763;;;;
2021/10/15 17:55:07;;;;;;;12.9;10.2;;;;;;;9.991838;67.78043;98767;;;;
2021/10/15 18:05:06;;;;;;;10.3;7.9;;;;;;;9.721799;68.74073;98761;;;;
2021/10/15 18:15:05;;;;;;;10.3;8.6;;;;;;;9.581914;70.21982;98741;;;;
2021/10/15 18:25:03;;;;;;;10.3;7.55;;;;;;;9.682181;69.53509;98745;;;;
2021/10/15 18:35:02;;;;;;;10.5;7.6;;;;;;;9.772257;69.43826;98743;;;;
2021/10/15 18:45:01;;;;;;;11.66667;8.266666;;;;;;;9.842067;69.26524;98743;;;;
2021/10/15 19:04:59;;;;;;;10;8;;;;;;;10.32195;69.31846;98737;;;;
2021/10/15 19:14:59;;;;;;;8.6;7.6;;;;;;;10.42214;69.30083;98732;;;;
2021/10/15 19:24:57;;;;;;;9.05;7.5;;;;;;;10.50214;68.78783;98743;;;;
2021/10/15 19:34:56;;;;;;;10.36667;7.8;;;;;;;10.52218;69.33689;98747;;;;
2021/10/15 19:44:54;;;;;;;9;6.8;;;;;;;10.45168;69.71169;98734;;;;
2021/10/15 19:54:53;;;;;;;10;7.7;;;;;;;10.49199;69.48348;98724;;;;
2021/10/15 20:04:52;;;;;;;9.8;7;;;;;;;10.46184;69.65625;98712;;;;
2021/10/15 20:14:52;;;;;;;9.6;7.2;;;;;;;10.30226;69.43961;98718;;;;
2021/10/15 20:24:50;;;;;;;14.6;7.1;;;;;;;10.33203;69.63192;98714;;;;
2021/10/15 20:44:48;;;;;;;8.7;5.8;;;;;;;10.39;70.32399;98714;;;;
2021/10/15 20:54:47;;;;;;;9.15;5.6;;;;;;;10.56222;69.96236;98716;;;;
2021/10/15 21:04:46;;;;;;;8.733333;5.433334;;;;;;;10.62195;70.05806;98710;;;;
2021/10/15 21:14:48;;;;;;;10.7;7.7;;;;;;;10.58184;69.79369;98718;;;;
2021/10/15 21:24:44;;;;;;;13.9;6.8;;;;;;;10.53207;70.15244;98722;;;;
2021/10/15 21:34:43;;;;;;;11.55;7;;;;;;;10.57222;70.09555;98737;;;;
2021/10/15 21:44:41;;;;;;;8.9;6.8;;;;;;;10.59214;69.74219;98747;;;;
2021/10/15 21:54:48;;;;;;;7.5;6.1;;;;;;;10.57172;70.52031;98763;;;;
2021/10/15 22:04:39;;;;;;;15.2;9.4;;;;;;;10.63172;70.42715;98775;;;;
2021/10/15 22:14:42;;;;;;;15.5;11.6;;;;;;;10.73207;70.09212;98810;;;;
2021/10/15 22:34:36;;;;;;;20.6;17.3;;;;;;;10.43172;73.66454;98834;;;;
2021/10/15 22:44:36;;;;;;;23.4;15.6;;;;;;;10.33184;75.5412;98842;;;;
2021/10/15 22:54:36;;;;;;;21.4;19.3;;;;;;;10.18188;76.94198;98855;;;;
2021/10/15 23:04:34;;;;;;;23.3;21;;;;;;;10.05199;77.78727;98861;;;;
2021/10/15 23:14:33;;;;;;;22.4;20.15;;;;;;;9.931799;78.49253;98875;;;;
2021/10/15 23:24:31;;;;;;;20.2;18;;;;;;;9.931914;77.80869;98883;;;;
2021/10/15 23:34:34;;;;;;;17.6;15.5;;;;;;;9.991799;77.18988;98891;;;;
2021/10/15 23:54:28;;;;;;;16.6;14;;;;;;;9.802143;77.26687;98902;;;;
